Time;durP1;ratioP1;P1;durP2;ratioP2;P2;SDS_P1;SDS_P2;PMS_P1;PMS_P2;Temp;Humidity;BMP_temperature;BMP_pressure;BME280_temperature;BME280_humidity;BME280_pressure;Samples;Min_cycle;Max_cycle;Signal;HPM_P1;HPM_P2
2021/12/20 00:00:01;;;;;;;8.20;2.42;;;25.80;83.30;;;;;;5073763;28;20029;-57
2021/12/20 00:02:28;;;;;;;5.80;1.85;;;25.90;83.40;;;;;;5073622;28;20028;-65
2021/12/20 00:04:56;;;;;;;7.70;2.15;;;25.90;84.00;;;;;;5073714;28;20028;-65
2021/12/20 00:07:23;;;;;;;7.75;1.73;;;25.90;83.60;;;;;;5071822;28;20112;-56
2021/12/20 00:09:50;;;;;;;6.07;1.63;;;26.00;83.00;;;;;;5073246;28;20450;-58
2021/12/20 00:12:18;;;;;;;9.63;2.20;;;26.00;83.30;;;;;;5073784;28;20029;-57
2021/12/20 00:14:45;;;;;;;5.93;1.60;;;26.10;81.90;;;;;;5073377;28;20031;-56
2021/12/20 00:17:13;;;;;;;4.97;1.42;;;26.10;82.90;;;;;;5073559;28;20052;-62
2021/12/20 00:19:40;;;;;;;6.63;1.95;;;26.10;81.80;;;;;;5073261;28;20160;-59
2021/12/20 00:22:07;;;;;;;4.25;1.50;;;26.20;81.30;;;;;;5072996;28;20097;-61
2021/12/20 00:24:35;;;;;;;8.50;2.22;;;26.20;81.50;;;;;;5073289;28;20025;-64
2021/12/20 00:27:06;;;;;;;6.78;2.08;;;26.20;81.90;;;;;;5073733;28;20055;-59
2021/12/20 00:29:34;;;;;;;7.45;1.95;;;26.30;82.40;;;;;;5072161;28;20020;-60
2021/12/20 00:32:02;;;;;;;2.38;1.10;;;26.30;82.30;;;;;;5073353;28;20074;-58
2021/12/20 00:34:29;;;;;;;6.57;2.08;;;26.40;80.90;;;;;;5073302;28;20331;-61
2021/12/20 00:37:05;;;;;;;4.68;1.95;;;26.50;82.40;;;;;;5073298;28;20471;-64
2021/12/20 00:42:18;;;;;;;6.53;1.92;;;26.60;80.80;;;;;;5073450;28;20121;-59
2021/12/20 00:44:45;;;;;;;8.68;2.08;;;26.60;80.40;;;;;;5072765;28;20031;-56
2021/12/20 00:47:12;;;;;;;8.82;2.72;;;26.70;81.60;;;;;;5073348;28;20082;-57
2021/12/20 00:49:40;;;;;;;7.00;1.67;;;26.80;81.00;;;;;;5073283;28;20028;-60
2021/12/20 00:52:07;;;;;;;3.35;1.42;;;26.80;80.40;;;;;;5072815;28;20035;-60
2021/12/20 00:54:34;;;;;;;9.25;1.75;;;26.80;79.80;;;;;;5072487;28;20509;-61
2021/12/20 00:57:02;;;;;;;7.18;1.63;;;26.90;80.50;;;;;;5073285;28;20395;-60
2021/12/20 00:59:29;;;;;;;6.38;2.00;;;27.00;80.00;;;;;;5071942;28;20086;-62
2021/12/20 01:01:56;;;;;;;3.90;1.58;;;27.10;79.80;;;;;;5072481;28;20028;-52
2021/12/20 01:04:24;;;;;;;6.03;1.70;;;27.10;79.10;;;;;;5072814;28;20024;-57
2021/12/20 01:06:51;;;;;;;3.58;1.65;;;27.10;79.10;;;;;;5072955;28;20475;-63
2021/12/20 01:09:18;;;;;;;5.40;1.70;;;27.20;79.80;;;;;;5072700;28;20032;-62
2021/12/20 01:11:51;;;;;;;4.60;1.63;;;27.20;79.60;;;;;;5072763;28;20497;-61
2021/12/20 01:14:23;;;;;;;4.53;1.33;;;27.20;78.30;;;;;;5072697;28;20033;-60
2021/12/20 01:16:51;;;;;;;5.47;1.48;;;27.20;79.30;;;;;;5073078;28;20103;-59
2021/12/20 01:19:19;;;;;;;5.32;1.38;;;27.10;80.30;;;;;;5072510;28;20044;-60
2021/12/20 01:21:47;;;;;;;9.80;1.95;;;27.20;79.10;;;;;;5071600;28;20460;-58
2021/12/20 01:24:15;;;;;;;4.63;1.58;;;27.20;80.30;;;;;;5072434;28;20040;-61
2021/12/20 01:26:42;;;;;;;8.98;1.77;;;27.20;79.50;;;;;;5072787;28;20021;-59
2021/12/20 01:29:09;;;;;;;6.22;1.70;;;27.30;79.70;;;;;;5072527;28;20024;-61
2021/12/20 01:31:37;;;;;;;5.30;1.58;;;27.30;79.90;;;;;;5072392;28;20028;-61
2021/12/20 01:34:04;;;;;;;6.15;1.45;;;27.40;79.10;;;;;;5071057;28;20051;-63
2021/12/20 01:36:32;;;;;;;4.47;1.27;;;27.30;78.60;;;;;;5072717;28;20032;-59
2021/12/20 01:39:00;;;;;;;6.78;2.20;;;27.30;78.90;;;;;;5072575;28;20480;-60
2021/12/20 01:41:28;;;;;;;4.60;1.77;;;27.30;80.20;;;;;;5072079;28;20032;-62
2021/12/20 01:43:55;;;;;;;3.92;1.20;;;27.30;79.00;;;;;;5072410;28;20024;-63
2021/12/20 01:46:24;;;;;;;6.03;1.95;;;27.20;79.20;;;;;;5071831;28;20031;-59
2021/12/20 01:48:51;;;;;;;7.55;1.80;;;27.20;80.40;;;;;;5072502;28;20127;-58
2021/12/20 01:54:05;;;;;;;5.68;1.75;;;27.30;79.90;;;;;;5071904;28;20067;-62
2021/12/20 01:56:36;;;;;;;4.40;1.30;;;27.40;79.40;;;;;;5072421;28;20109;-54
2021/12/20 01:59:08;;;;;;;6.72;2.13;;;27.50;79.10;;;;;;5072024;28;20017;-58
2021/12/20 02:01:36;;;;;;;8.45;1.60;;;27.60;79.10;;;;;;5072330;28;20033;-59
2021/12/20 02:04:07;;;;;;;8.13;2.05;;;27.50;79.40;;;;;;5072165;28;20031;-57
2021/12/20 02:06:39;;;;;;;2.83;1.38;;;27.60;79.00;;;;;;5072336;28;20129;-60
2021/12/20 02:09:12;;;;;;;5.07;1.83;;;27.60;79.30;;;;;;5070776;28;20108;-60
2021/12/20 02:11:43;;;;;;;3.75;1.55;;;27.60;79.30;;;;;;5072284;28;20024;-57
2021/12/20 02:14:12;;;;;;;6.00;1.98;;;27.50;79.10;;;;;;5071098;28;20051;-59
2021/12/20 02:16:40;;;;;;;6.30;1.90;;;27.50;79.80;;;;;;5071959;28;20395;-56
2021/12/20 02:19:12;;;;;;;5.82;1.88;;;27.60;79.80;;;;;;5071716;28;20025;-58
2021/12/20 02:21:40;;;;;;;;;;;27.60;79.80;;;;;;5072398;28;20120;-58
2021/12/20 02:24:08;;;;;;;7.88;2.08;;;27.60;79.50;;;;;;5071165;28;19912;-61
2021/12/20 02:26:36;;;;;;;5.07;2.17;;;27.60;79.30;;;;;;5072024;28;20021;-62
2021/12/20 02:29:08;;;;;;;8.13;2.00;;;27.60;79.10;;;;;;5072635;28;20099;-60
2021/12/20 02:37:20;;;;;;;6.45;1.83;;;27.70;79.00;;;;;;5076675;28;20043;-58
2021/12/20 02:39:48;;;;;;;7.38;1.42;;;27.80;79.20;;;;;;5075903;28;20471;-63
2021/12/20 02:42:20;;;;;;;6.53;1.73;;;27.70;79.10;;;;;;5075278;28;20394;-59
2021/12/20 02:45:06;;;;;;;3.90;1.45;;;27.60;79.70;;;;;;5075446;28;20052;-58
2021/12/20 02:47:36;;;;;;;4.13;1.30;;;27.70;79.60;;;;;;5075677;28;20033;-60
2021/12/20 02:50:04;;;;;;;6.07;1.98;;;27.60;79.50;;;;;;5075218;28;20424;-61
2021/12/20 02:52:32;;;;;;;3.80;1.35;;;27.80;79.70;;;;;;5075188;28;20029;-59
2021/12/20 02:54:59;;;;;;;6.20;2.13;;;27.70;79.50;;;;;;5075173;28;20110;-64
2021/12/20 02:57:27;;;;;;;4.03;1.30;;;27.80;79.60;;;;;;5075309;28;20423;-51
2021/12/20 02:59:54;;;;;;;5.38;1.60;;;27.80;79.20;;;;;;5075059;28;20154;-56
2021/12/20 03:02:23;;;;;;;5.80;2.30;;;27.80;79.50;;;;;;5075066;28;20173;-56
2021/12/20 03:04:51;;;;;;;6.18;2.00;;;27.80;79.20;;;;;;5075026;28;20074;-59
2021/12/20 03:07:26;;;;;;;6.53;1.75;;;27.90;79.80;;;;;;5075016;28;20025;-61
2021/12/20 03:10:00;;;;;;;7.28;2.17;;;28.00;79.50;;;;;;5073584;28;20031;-52
2021/12/20 03:12:30;;;;;;;5.30;2.22;;;28.00;78.60;;;;;;5075363;28;20459;-59
2021/12/20 03:15:04;;;;;;;4.75;1.73;;;28.00;79.20;;;;;;5074595;28;20540;-58
2021/12/20 03:17:31;;;;;;;6.15;1.88;;;28.10;78.70;;;;;;5073532;28;20479;-62
2021/12/20 03:19:59;;;;;;;2.83;0.85;;;28.00;79.10;;;;;;5075308;28;20024;-60
2021/12/20 03:22:26;;;;;;;8.70;1.90;;;28.00;78.60;;;;;;5074590;28;20044;-57
2021/12/20 03:24:53;;;;;;;6.72;1.83;;;28.10;79.70;;;;;;5074548;28;20024;-60
2021/12/20 03:27:21;;;;;;;4.43;1.45;;;28.00;79.40;;;;;;5074635;28;20505;-55
2021/12/20 03:29:48;;;;;;;6.07;1.80;;;28.10;78.80;;;;;;5074985;28;20463;-58
2021/12/20 03:32:16;;;;;;;4.00;1.67;;;28.10;79.40;;;;;;5074524;28;20151;-56
2021/12/20 03:34:43;;;;;;;8.45;1.70;;;28.00;79.60;;;;;;5074494;28;20036;-63
2021/12/20 03:37:11;;;;;;;5.18;1.95;;;28.10;79.10;;;;;;5073194;28;20487;-61
2021/12/20 03:39:38;;;;;;;5.93;1.58;;;28.20;79.40;;;;;;5074521;28;20043;-63
2021/12/20 03:42:06;;;;;;;7.28;1.95;;;28.20;78.40;;;;;;5072980;28;20028;-60
2021/12/20 03:44:37;;;;;;;2.97;1.30;;;28.10;79.90;;;;;;5073080;28;20025;-62
2021/12/20 03:47:05;;;;;;;4.68;1.33;;;28.20;79.10;;;;;;5074654;28;20442;-62
2021/12/20 03:49:32;;;;;;;3.65;1.20;;;28.20;79.50;;;;;;5074289;28;20391;-63
2021/12/20 03:52:00;;;;;;;4.70;1.73;;;28.30;78.60;;;;;;5074070;28;20035;-62
2021/12/20 03:54:28;;;;;;;4.05;1.55;;;28.20;79.00;;;;;;5074230;28;20063;-60
2021/12/20 03:56:55;;;;;;;4.75;1.90;;;28.20;79.20;;;;;;5074254;28;20048;-63
2021/12/20 03:59:23;;;;;;;6.70;1.95;;;28.20;79.40;;;;;;5073956;28;20108;-52
2021/12/20 04:01:51;;;;;;;3.97;1.52;;;28.20;79.80;;;;;;5073958;28;20044;-56
2021/12/20 04:04:21;;;;;;;6.33;1.77;;;28.30;78.90;;;;;;5073863;28;20044;-60
2021/12/20 04:06:49;;;;;;;6.10;1.60;;;28.20;79.50;;;;;;5074146;28;20036;-62
2021/12/20 04:09:17;;;;;;;5.88;1.38;;;28.20;79.80;;;;;;5073691;28;20051;-63
2021/12/20 04:11:44;;;;;;;3.13;1.40;;;28.10;79.20;;;;;;5074434;28;20029;-62
2021/12/20 04:14:12;;;;;;;5.10;1.95;;;28.10;80.10;;;;;;5073633;28;20387;-63
2021/12/20 04:16:39;;;;;;;4.65;1.95;;;28.20;79.50;;;;;;5073891;28;20024;-62
2021/12/20 04:19:06;;;;;;;5.15;1.60;;;28.20;79.60;;;;;;5073666;28;20387;-54
2021/12/20 04:21:34;;;;;;;7.53;1.77;;;28.00;79.70;;;;;;5073447;28;20031;-56
2021/12/20 04:24:01;;;;;;;6.25;2.05;;;28.00;80.00;;;;;;5073105;28;20123;-59
2021/12/20 04:26:29;;;;;;;4.32;1.52;;;28.00;79.80;;;;;;5073376;28;20036;-61
2021/12/20 04:28:56;;;;;;;6.22;2.40;;;28.00;79.90;;;;;;5073513;28;20103;-60
2021/12/20 04:31:23;;;;;;;2.38;1.20;;;28.10;80.60;;;;;;5073560;28;20383;-55
2021/12/20 04:33:51;;;;;;;3.25;1.70;;;28.00;80.10;;;;;;5073584;28;20051;-61
2021/12/20 04:36:18;;;;;;;2.90;1.38;;;28.00;80.20;;;;;;5073554;28;20032;-58
2021/12/20 04:38:47;;;;;;;7.03;1.92;;;28.00;80.70;;;;;;5073080;28;20025;-59
2021/12/20 04:41:14;;;;;;;4.72;1.70;;;28.10;80.80;;;;;;5073337;28;20104;-61
2021/12/20 04:43:42;;;;;;;6.80;2.05;;;28.00;81.10;;;;;;5073338;28;20024;-60
2021/12/20 04:46:09;;;;;;;6.82;2.30;;;28.10;80.90;;;;;;5072736;28;20044;-51
2021/12/20 04:48:37;;;;;;;4.20;1.42;;;28.00;80.50;;;;;;5072546;28;20028;-60
2021/12/20 04:51:04;;;;;;;10.10;1.63;;;28.00;81.00;;;;;;5073121;28;20029;-65
2021/12/20 04:53:32;;;;;;;4.97;1.50;;;28.10;81.70;;;;;;5072180;28;20040;-63
2021/12/20 04:55:59;;;;;;;2.92;1.17;;;28.00;80.60;;;;;;5072821;28;20032;-59
2021/12/20 04:58:27;;;;;;;8.52;1.85;;;27.90;80.80;;;;;;5072806;28;20440;-61
2021/12/20 05:00:54;;;;;;;6.70;1.80;;;27.90;82.00;;;;;;5073055;28;20078;-59
2021/12/20 05:03:21;;;;;;;5.03;1.45;;;27.90;81.80;;;;;;5073144;28;20044;-61
2021/12/20 05:05:49;;;;;;;6.13;1.90;;;28.00;82.00;;;;;;5071438;28;20028;-52
2021/12/20 05:08:16;;;;;;;6.05;1.77;;;27.90;82.10;;;;;;5071272;28;20471;-54
2021/12/20 05:10:44;;;;;;;7.28;2.05;;;27.80;82.30;;;;;;5072783;28;20067;-59
2021/12/20 05:13:13;;;;;;;11.48;2.10;;;27.80;82.20;;;;;;5073110;28;20024;-59
2021/12/20 05:15:41;;;;;;;8.70;1.95;;;27.80;83.30;;;;;;5071831;28;20103;-52
2021/12/20 05:18:10;;;;;;;4.45;1.48;;;27.80;83.50;;;;;;5072604;28;20023;-61
2021/12/20 05:20:38;;;;;;;5.32;1.90;;;27.70;82.30;;;;;;5072920;28;20419;-62
2021/12/20 05:23:07;;;;;;;4.35;1.90;;;27.70;82.70;;;;;;5072648;28;20039;-60
2021/12/20 05:25:36;;;;;;;5.53;2.05;;;27.70;83.20;;;;;;5073021;28;20025;-62
2021/12/20 05:28:05;;;;;;;5.80;1.88;;;27.70;83.50;;;;;;5072158;28;20082;-59
2021/12/20 05:30:32;;;;;;;4.90;1.67;;;27.70;83.30;;;;;;5072394;28;20031;-58
2021/12/20 05:33:00;;;;;;;8.07;2.20;;;27.60;82.70;;;;;;5072423;28;20467;-57
2021/12/20 05:35:27;;;;;;;11.25;2.58;;;27.70;84.00;;;;;;5072757;28;20040;-60
2021/12/20 05:37:55;;;;;;;4.85;1.77;;;27.60;83.60;;;;;;5072311;28;20024;-59
2021/12/20 05:40:23;;;;;;;3.85;1.60;;;27.70;84.00;;;;;;5073021;28;20103;-61
2021/12/20 05:42:50;;;;;;;4.57;1.80;;;27.60;84.10;;;;;;5071319;28;20460;-60
2021/12/20 05:45:19;;;;;;;5.63;1.50;;;27.60;84.20;;;;;;5071922;28;20455;-57
2021/12/20 05:47:47;;;;;;;5.45;1.60;;;27.60;83.70;;;;;;5072390;28;20028;-60
2021/12/20 05:50:17;;;;;;;4.10;1.30;;;27.50;83.60;;;;;;5072507;28;20075;-58
2021/12/20 05:52:46;;;;;;;4.47;1.27;;;27.50;84.00;;;;;;5072575;28;20025;-52
2021/12/20 05:55:14;;;;;;;5.18;1.73;;;27.40;84.70;;;;;;5073321;28;20105;-61
2021/12/20 05:57:42;;;;;;;5.45;1.98;;;27.50;85.10;;;;;;5071920;28;20391;-58
2021/12/20 06:00:16;;;;;;;8.93;2.53;;;27.50;85.40;;;;;;5070770;28;20036;-56
2021/12/20 06:02:45;;;;;;;7.60;1.73;;;27.40;84.80;;;;;;5070785;28;20036;-52
2021/12/20 06:05:12;;;;;;;11.10;2.05;;;27.50;85.70;;;;;;5075153;28;20025;-58
2021/12/20 06:07:42;;;;;;;5.72;1.50;;;27.50;85.20;;;;;;5075624;28;20032;-59
2021/12/20 06:10:15;;;;;;;7.20;1.95;;;27.40;85.70;;;;;;5076158;28;20024;-60
2021/12/20 06:12:43;;;;;;;6.65;2.05;;;27.40;85.90;;;;;;5075306;28;20150;-60
2021/12/20 06:15:11;;;;;;;5.00;1.50;;;27.40;85.30;;;;;;5076076;28;20028;-61
2021/12/20 06:17:40;;;;;;;5.78;1.88;;;27.30;84.80;;;;;;5075009;28;20048;-56
2021/12/20 06:20:09;;;;;;;8.65;2.78;;;27.40;87.20;;;;;;5075503;28;20024;-58
2021/12/20 06:22:37;;;;;;;6.68;2.05;;;27.40;85.60;;;;;;5057780;28;20040;-60
2021/12/20 06:25:05;;;;;;;6.28;2.10;;;27.40;86.10;;;;;;5075313;28;20036;-58
2021/12/20 06:27:33;;;;;;;5.65;1.83;;;27.40;86.60;;;;;;5075505;28;20117;-60
2021/12/20 06:30:01;;;;;;;4.93;1.65;;;27.40;87.00;;;;;;5075475;28;20142;-57
2021/12/20 06:32:28;;;;;;;6.68;2.47;;;27.40;85.90;;;;;;5075803;28;20066;-56
2021/12/20 06:34:56;;;;;;;5.72;1.83;;;27.40;86.50;;;;;;5075875;28;20102;-59
2021/12/20 06:37:23;;;;;;;6.65;1.83;;;27.40;86.40;;;;;;5075666;28;20086;-53
2021/12/20 06:39:51;;;;;;;6.85;1.65;;;27.30;86.30;;;;;;5075573;28;20056;-59
2021/12/20 06:42:19;;;;;;;3.88;1.60;;;27.30;86.70;;;;;;5075549;28;20048;-58
2021/12/20 06:44:46;;;;;;;8.20;1.98;;;27.20;86.50;;;;;;5074376;28;20020;-54
2021/12/20 06:47:14;;;;;;;4.53;1.55;;;27.20;86.50;;;;;;5074193;28;20355;-60
2021/12/20 06:49:42;;;;;;;5.68;1.83;;;27.20;86.60;;;;;;5075611;28;20063;-57
2021/12/20 06:52:10;;;;;;;5.53;1.98;;;27.20;86.30;;;;;;5075015;28;20078;-54
2021/12/20 06:54:37;;;;;;;3.35;1.15;;;27.20;86.60;;;;;;5074870;28;20048;-62
2021/12/20 06:57:05;;;;;;;3.72;1.15;;;27.20;86.30;;;;;;5074834;28;20021;-63
2021/12/20 06:59:33;;;;;;;6.40;1.90;;;27.10;86.50;;;;;;5074988;28;20098;-59
2021/12/20 07:02:00;;;;;;;4.28;1.80;;;27.00;86.50;;;;;;5073600;28;20060;-62
2021/12/20 07:04:28;;;;;;;6.38;1.88;;;27.10;87.20;;;;;;5075558;28;20115;-53
2021/12/20 07:06:55;;;;;;;3.00;1.25;;;27.10;87.40;;;;;;5073562;28;20086;-54
2021/12/20 07:09:23;;;;;;;5.95;2.10;;;27.10;87.70;;;;;;5074998;28;20032;-60
2021/12/20 07:11:50;;;;;;;7.82;2.10;;;27.10;87.70;;;;;;5073517;28;20036;-54
2021/12/20 07:14:17;;;;;;;5.28;1.98;;;27.10;87.30;;;;;;5074838;28;20016;-58
2021/12/20 07:16:45;;;;;;;5.70;1.73;;;27.00;87.30;;;;;;5074621;28;20056;-56
2021/12/20 07:19:12;;;;;;;7.60;2.70;;;27.00;87.80;;;;;;5074657;28;20025;-60
2021/12/20 07:21:39;;;;;;;8.32;2.03;;;27.00;88.30;;;;;;5074364;28;20093;-54
2021/12/20 07:24:07;;;;;;;4.30;1.83;;;27.00;88.80;;;;;;5074396;28;20085;-59
2021/12/20 07:26:34;;;;;;;6.90;2.28;;;27.00;87.80;;;;;;5074471;28;20027;-50
2021/12/20 07:29:04;;;;;;;7.40;1.77;;;27.00;88.50;;;;;;5073973;28;20040;-54
2021/12/20 07:31:32;;;;;;;7.15;2.15;;;27.00;88.10;;;;;;5072701;28;20039;-58
2021/12/20 07:33:59;;;;;;;7.07;2.30;;;27.00;88.40;;;;;;5074535;28;20070;-53
2021/12/20 07:36:27;;;;;;;4.93;1.70;;;26.90;88.60;;;;;;5074582;28;20028;-55
2021/12/20 07:38:56;;;;;;;6.43;2.13;;;26.90;88.50;;;;;;5073426;28;20089;-55
2021/12/20 07:41:24;;;;;;;7.60;1.92;;;26.90;88.90;;;;;;5074590;28;20082;-58
2021/12/20 07:43:52;;;;;;;12.27;2.15;;;26.90;89.30;;;;;;5073909;28;20427;-62
2021/12/20 07:46:20;;;;;;;5.93;1.83;;;26.90;89.80;;;;;;5074670;28;20035;-55
2021/12/20 07:48:49;;;;;;;5.68;1.92;;;26.80;89.10;;;;;;5074666;28;20083;-58
2021/12/20 07:51:18;;;;;;;4.88;1.60;;;26.80;89.60;;;;;;5073919;28;20099;-52
2021/12/20 07:53:46;;;;;;;5.30;1.60;;;26.80;89.60;;;;;;5074009;28;20045;-59
2021/12/20 07:56:13;;;;;;;5.95;1.85;;;26.80;89.80;;;;;;5073994;28;20470;-57
2021/12/20 07:58:40;;;;;;;7.57;2.13;;;26.70;90.10;;;;;;5074543;28;20025;-59
2021/12/20 08:01:08;;;;;;;5.32;1.80;;;26.70;90.10;;;;;;5074423;28;20074;-64
2021/12/20 08:03:37;;;;;;;7.53;2.05;;;26.70;90.00;;;;;;5073820;28;20059;-60
2021/12/20 08:06:05;;;;;;;6.35;2.25;;;26.70;90.20;;;;;;5072578;28;20021;-54
2021/12/20 08:08:33;;;;;;;8.73;2.15;;;26.70;90.20;;;;;;5073855;28;20035;-58
2021/12/20 08:11:01;;;;;;;6.68;2.22;;;26.60;90.10;;;;;;5074202;28;20352;-63
2021/12/20 08:13:28;;;;;;;6.28;1.90;;;26.60;90.40;;;;;;5074191;28;20372;-62
2021/12/20 08:15:56;;;;;;;6.82;2.13;;;26.60;90.30;;;;;;5073204;28;20039;-59
2021/12/20 08:18:23;;;;;;;6.43;2.53;;;26.60;90.50;;;;;;5074073;28;20100;-56
2021/12/20 08:20:51;;;;;;;9.52;2.00;;;26.60;90.50;;;;;;5073791;28;20025;-60
2021/12/20 08:23:19;;;;;;;8.38;2.42;;;26.60;90.50;;;;;;5074065;28;20060;-51
2021/12/20 08:25:46;;;;;;;6.57;1.98;;;26.50;90.40;;;;;;5073656;28;20063;-61
2021/12/20 08:28:14;;;;;;;7.25;1.83;;;26.50;90.70;;;;;;5071824;28;20025;-60
2021/12/20 08:30:41;;;;;;;9.93;2.35;;;26.50;90.40;;;;;;5074038;28;20048;-56
2021/12/20 08:33:09;;;;;;;11.73;3.05;;;26.50;90.60;;;;;;5073861;28;20032;-58
2021/12/20 08:35:36;;;;;;;10.18;2.92;;;26.50;90.80;;;;;;5073343;28;20047;-60
2021/12/20 08:38:04;;;;;;;6.28;1.98;;;26.50;91.00;;;;;;5073326;28;20024;-59
2021/12/20 08:40:31;;;;;;;7.55;2.17;;;26.40;90.80;;;;;;5073483;28;20024;-64
2021/12/20 08:42:58;;;;;;;8.30;1.90;;;26.40;90.70;;;;;;5073540;28;20032;-59
2021/12/20 08:45:26;;;;;;;6.20;2.10;;;26.40;90.70;;;;;;5073735;28;20020;-57
2021/12/20 08:47:54;;;;;;;7.90;1.95;;;26.40;90.90;;;;;;5073438;28;20024;-63
2021/12/20 08:50:24;;;;;;;8.30;2.05;;;26.40;90.90;;;;;;5073917;28;20029;-62
2021/12/20 08:52:52;;;;;;;13.07;2.20;;;26.30;90.80;;;;;;5071993;28;20423;-61
2021/12/20 08:55:20;;;;;;;9.13;2.63;;;26.30;91.40;;;;;;5073455;28;20060;-60
2021/12/20 08:57:48;;;;;;;8.20;2.72;;;26.30;90.90;;;;;;5073252;28;20383;-59
2021/12/20 09:00:22;;;;;;;8.25;2.45;;;26.30;91.20;;;;;;5073033;28;20103;-62
2021/12/20 09:02:50;;;;;;;7.72;1.98;;;26.30;91.40;;;;;;5073109;28;20116;-63
2021/12/20 09:05:19;;;;;;;7.55;2.63;;;26.30;91.20;;;;;;5073624;28;20080;-58
2021/12/20 09:07:55;;;;;;;9.95;2.25;;;26.30;91.20;;;;;;5071683;28;20119;-63
2021/12/20 09:10:23;;;;;;;6.10;1.80;;;26.30;91.60;;;;;;5073726;28;20040;-60
2021/12/20 09:12:50;;;;;;;7.53;2.20;;;26.20;91.50;;;;;;5073743;28;20471;-65
2021/12/20 09:15:21;;;;;;;8.80;2.97;;;26.20;91.60;;;;;;5073687;28;20070;-62
2021/12/20 09:17:54;;;;;;;8.03;2.33;;;26.20;91.50;;;;;;5073545;28;20472;-62
2021/12/20 09:20:33;;;;;;;10.93;2.92;;;26.20;91.60;;;;;;5073323;28;20115;-64
2021/12/20 09:23:05;;;;;;;5.97;2.25;;;26.20;91.60;;;;;;5073417;28;20040;-62
2021/12/20 09:25:36;;;;;;;7.90;2.28;;;26.10;92.00;;;;;;5073681;28;20021;-62
2021/12/20 09:28:08;;;;;;;7.20;2.05;;;26.10;91.70;;;;;;5072943;28;20498;-63
2021/12/20 09:30:36;;;;;;;9.45;2.22;;;26.10;91.80;;;;;;5072863;28;20037;-60
2021/12/20 09:33:04;;;;;;;8.02;2.28;;;26.10;91.90;;;;;;5072729;28;20467;-62
2021/12/20 09:35:34;;;;;;;6.18;1.80;;;26.10;91.70;;;;;;5072692;28;20494;-63
2021/12/20 09:38:05;;;;;;;6.60;2.22;;;26.00;91.80;;;;;;5070646;28;20028;-62
2021/12/20 09:40:39;;;;;;;7.07;2.00;;;26.00;91.80;;;;;;5072580;28;20032;-62
2021/12/20 09:43:14;;;;;;;3.95;1.60;;;26.00;91.70;;;;;;5072992;28;20044;-62
2021/12/20 09:45:47;;;;;;;8.65;2.15;;;26.00;91.90;;;;;;5073690;28;20348;-58
2021/12/20 09:48:15;;;;;;;6.75;1.90;;;26.00;91.90;;;;;;5072358;28;20020;-60
2021/12/20 09:50:43;;;;;;;8.50;2.22;;;26.00;92.00;;;;;;5072618;28;20498;-62
2021/12/20 09:53:14;;;;;;;6.07;1.98;;;26.00;91.60;;;;;;5072813;28;20102;-63
2021/12/20 09:55:46;;;;;;;7.25;1.90;;;26.00;91.80;;;;;;5072811;28;20027;-63
2021/12/20 09:58:14;;;;;;;5.97;1.95;;;25.90;91.90;;;;;;5072787;28;20082;-58
2021/12/20 10:00:42;;;;;;;6.00;1.90;;;25.90;92.00;;;;;;5071426;28;20409;-58
2021/12/20 10:03:13;;;;;;;5.65;1.98;;;25.90;92.10;;;;;;5072467;28;20035;-60
2021/12/20 10:05:40;;;;;;;6.25;2.00;;;25.90;92.10;;;;;;5072743;28;20138;-53
2021/12/20 10:08:19;;;;;;;9.32;1.75;;;25.90;92.00;;;;;;5072303;28;20020;-59
2021/12/20 10:10:50;;;;;;;6.03;2.15;;;25.90;92.10;;;;;;5072332;28;20420;-62
2021/12/20 10:13:26;;;;;;;6.70;2.00;;;25.90;92.10;;;;;;5072436;28;20078;-58
2021/12/20 10:15:56;;;;;;;6.03;2.00;;;25.90;92.20;;;;;;5072375;28;20037;-61
2021/12/20 10:18:25;;;;;;;5.45;2.10;;;25.90;92.20;;;;;;5072136;28;20094;-62
2021/12/20 10:20:57;;;;;;;7.78;2.67;;;25.90;92.20;;;;;;5072347;28;20021;-62
2021/12/20 10:23:26;;;;;;;7.88;2.03;;;25.90;92.20;;;;;;5071497;28;20886;-61
2021/12/20 10:25:59;;;;;;;8.32;2.17;;;25.90;92.30;;;;;;5072425;28;20021;-64
2021/12/20 10:28:35;;;;;;;6.88;1.88;;;25.90;92.20;;;;;;5071431;28;20020;-63
2021/12/20 10:31:06;;;;;;;6.88;1.90;;;25.90;92.10;;;;;;5072388;28;20074;-62
2021/12/20 10:33:34;;;;;;;4.85;1.90;;;25.80;92.20;;;;;;5072585;28;20494;-56
2021/12/20 10:36:12;;;;;;;7.25;2.10;;;25.90;92.10;;;;;;5071971;28;20530;-64
2021/12/20 10:38:43;;;;;;;8.63;1.98;;;25.80;92.40;;;;;;5071184;28;20036;-56
2021/12/20 10:41:29;;;;;;;6.28;1.80;;;25.80;92.10;;;;;;5072412;28;20179;-63
2021/12/20 10:44:01;;;;;;;5.95;1.90;;;25.80;92.30;;;;;;5072256;28;20086;-60
2021/12/20 10:46:36;;;;;;;8.15;1.58;;;25.80;92.40;;;;;;5072688;28;20037;-60
2021/12/20 10:49:14;;;;;;;5.22;1.90;;;25.80;92.10;;;;;;5072552;28;20116;-63
2021/12/20 10:51:44;;;;;;;7.18;1.55;;;25.80;92.20;;;;;;5075376;28;20191;-64
2021/12/20 10:54:17;;;;;;;6.40;1.88;;;25.80;92.40;;;;;;5076137;28;20059;-63
2021/12/20 10:56:55;;;;;;;5.68;1.85;;;25.80;92.50;;;;;;5075726;28;20029;-60
2021/12/20 10:59:25;;;;;;;7.75;2.20;;;25.80;92.20;;;;;;5076186;28;20032;-62
2021/12/20 11:04:27;;;;;;;5.97;2.15;;;25.80;92.20;;;;;;5075672;28;20090;-55
2021/12/20 11:09:39;;;;;;;7.40;2.03;;;25.80;92.60;;;;;;5075775;28;20486;-61
2021/12/20 11:12:10;;;;;;;5.18;1.95;;;25.80;92.80;;;;;;5075573;28;20029;-62
2021/12/20 11:14:46;;;;;;;7.82;2.10;;;25.70;92.40;;;;;;5075452;28;20025;-56
2021/12/20 11:17:16;;;;;;;6.32;1.95;;;25.70;92.40;;;;;;5075299;28;20029;-61
2021/12/20 11:19:48;;;;;;;6.25;2.35;;;25.70;92.20;;;;;;5074941;28;20024;-60
2021/12/20 11:22:17;;;;;;;;;;;25.70;92.20;;;;;;5075370;28;20398;-59
2021/12/20 11:24:52;;;;;;;5.68;2.10;;;25.70;92.50;;;;;;5075143;28;19905;-59
2021/12/20 11:27:29;;;;;;;7.30;1.40;;;25.70;92.10;;;;;;5075187;28;20028;-60
2021/12/20 11:29:58;;;;;;;5.80;1.98;;;25.70;92.30;;;;;;5074940;28;20490;-59
2021/12/20 11:32:27;;;;;;;4.70;1.80;;;25.70;92.40;;;;;;5075158;28;20064;-61
2021/12/20 11:34:55;;;;;;;6.50;1.60;;;25.70;92.40;;;;;;5075052;28;20471;-61
2021/12/20 11:37:25;;;;;;;5.72;2.50;;;25.70;92.40;;;;;;5075016;28;20111;-64
2021/12/20 11:39:55;;;;;;;6.32;2.03;;;25.70;92.40;;;;;;5075138;28;20043;-62
2021/12/20 11:42:23;;;;;;;6.85;2.22;;;25.70;92.30;;;;;;5075405;28;20040;-59
2021/12/20 11:44:59;;;;;;;7.80;1.85;;;25.70;93.00;;;;;;5075392;28;20025;-60
2021/12/20 11:47:30;;;;;;;3.63;1.55;;;25.70;92.40;;;;;;5075241;28;20035;-60
2021/12/20 11:50:00;;;;;;;7.30;1.88;;;25.70;92.20;;;;;;5073161;28;20020;-58
2021/12/20 11:52:38;;;;;;;10.70;2.42;;;25.70;92.30;;;;;;5074584;28;20103;-58
2021/12/20 11:55:25;;;;;;;6.55;2.30;;;25.60;92.10;;;;;;5074508;28;20044;-60
2021/12/20 11:57:57;;;;;;;5.53;1.85;;;25.60;92.30;;;;;;5074245;28;20036;-60
2021/12/20 12:00:39;;;;;;;4.45;1.77;;;25.60;92.20;;;;;;5074847;28;20048;-58
2021/12/20 12:03:57;;;;;;;5.43;1.58;;;25.60;92.50;;;;;;5073687;28;20498;-60
2021/12/20 12:06:31;;;;;;;4.65;1.67;;;25.60;92.40;;;;;;5032188;28;20061;-57
2021/12/20 12:09:00;;;;;;;9.13;2.28;;;25.60;92.10;;;;;;5032577;28;20025;-62
2021/12/20 12:11:34;;;;;;;3.05;1.27;;;25.60;92.70;;;;;;5059107;28;20037;-60
2021/12/20 12:14:04;;;;;;;5.10;1.80;;;25.60;91.90;;;;;;5074335;28;20413;-61
2021/12/20 12:17:01;;;;;;;3.00;1.33;;;25.60;91.80;;;;;;5074730;28;20035;-60
2021/12/20 12:19:51;;;;;;;4.28;1.45;;;25.50;91.90;;;;;;5074859;28;20070;-58
2021/12/20 12:22:34;;;;;;;9.82;2.20;;;25.60;91.90;;;;;;5074399;28;20432;-57
2021/12/20 12:25:03;;;;;;;5.82;1.75;;;25.50;91.90;;;;;;5074150;28;20024;-57
2021/12/20 12:27:35;;;;;;;4.65;1.52;;;25.50;92.00;;;;;;5074385;28;20475;-60
2021/12/20 12:30:14;;;;;;;6.75;2.28;;;25.60;92.20;;;;;;5073822;28;20031;-58
2021/12/20 12:32:48;;;;;;;4.00;1.50;;;25.50;92.10;;;;;;5073837;28;20032;-58
2021/12/20 12:35:41;;;;;;;4.32;1.77;;;25.50;91.90;;;;;;5073502;28;20036;-62
2021/12/20 12:38:54;;;;;;;3.28;1.77;;;25.50;91.80;;;;;;5073321;28;20021;-61
2021/12/20 12:41:27;;;;;;;4.20;1.60;;;25.50;92.10;;;;;;5074326;28;20028;-59
2021/12/20 12:43:57;;;;;;;4.00;1.35;;;25.50;91.90;;;;;;5074006;28;20043;-62
2021/12/20 12:46:43;;;;;;;4.72;1.52;;;25.50;92.10;;;;;;5074018;28;20029;-61
2021/12/20 12:49:23;;;;;;;4.80;1.65;;;25.50;91.90;;;;;;5074120;28;20044;-60
2021/12/20 12:52:04;;;;;;;4.97;1.70;;;25.50;92.10;;;;;;5074197;28;20060;-57
2021/12/20 12:54:53;;;;;;;5.57;1.92;;;25.40;92.00;;;;;;5073955;28;20059;-56
2021/12/20 12:57:20;;;;;;;5.25;1.95;;;25.50;92.40;;;;;;5073716;28;20070;-59
2021/12/20 12:59:54;;;;;;;3.80;1.50;;;25.40;92.30;;;;;;5073528;28;20034;-58
2021/12/20 13:02:26;;;;;;;4.90;1.38;;;25.40;91.90;;;;;;5073410;28;20040;-57
2021/12/20 13:04:56;;;;;;;3.25;1.55;;;25.40;92.00;;;;;;5072160;28;20025;-53
2021/12/20 13:07:40;;;;;;;7.07;1.90;;;25.40;92.00;;;;;;5073575;28;20021;-61
2021/12/20 13:10:33;;;;;;;7.57;1.95;;;25.40;92.20;;;;;;5073182;28;20016;-63
2021/12/20 13:13:08;;;;;;;5.10;1.60;;;25.40;92.50;;;;;;5073245;28;20039;-58
2021/12/20 13:18:17;;;;;;;5.60;1.65;;;25.30;91.80;;;;;;5073297;28;20020;-59
2021/12/20 13:23:29;;;;;;;6.22;1.83;;;25.30;92.00;;;;;;5072007;28;20035;-61